createdAt,value
2019-03-19T00:02:19.704Z,89.69
2019-03-19T00:14:34.959Z,86.64
2019-03-19T00:17:03.138Z,87.05
2019-03-19T00:19:31.275Z,87.34
2019-03-19T00:21:59.285Z,88.01
2019-03-19T00:24:27.661Z,88.93
2019-03-19T00:26:55.699Z,88.29
2019-03-19T00:29:23.662Z,87.55
2019-03-19T00:31:51.999Z,87.46
2019-03-19T00:34:19.848Z,87.39
2019-03-19T00:36:47.858Z,87.17
2019-03-19T00:39:15.876Z,87.29
2019-03-19T00:41:43.937Z,87.51
2019-03-19T00:44:11.832Z,87.48
2019-03-19T00:46:39.723Z,87.59
2019-03-19T00:49:07.773Z,87.23
2019-03-19T00:51:35.835Z,86.62
2019-03-19T00:54:04.102Z,86.41
2019-03-19T00:56:33.051Z,86.12
2019-03-19T00:59:01.173Z,86.26
2019-03-19T01:01:29.204Z,86.33
2019-03-19T01:03:57.101Z,86.72
2019-03-19T01:06:25.122Z,86.58
2019-03-19T01:08:53.347Z,86.73
2019-03-19T01:11:21.233Z,86.46
2019-03-19T01:13:49.230Z,86.26
2019-03-19T01:16:17.445Z,85.32
2019-03-19T01:18:45.648Z,85.42
2019-03-19T01:21:13.936Z,86.04
2019-03-19T01:23:42.028Z,85.88
2019-03-19T01:26:09.969Z,85.55
2019-03-19T01:28:37.993Z,85.62
2019-03-19T01:31:06.057Z,85.23
2019-03-19T01:33:34.140Z,85.47
2019-03-19T01:36:02.159Z,86.00
2019-03-19T01:38:30.211Z,86.48
2019-03-19T01:40:58.278Z,86.95
2019-03-19T01:43:26.459Z,86.62
2019-03-19T01:45:54.424Z,86.99
2019-03-19T01:48:22.499Z,87.79
2019-03-19T01:50:50.390Z,88.04
2019-03-19T01:53:18.439Z,87.79
2019-03-19T01:55:46.367Z,88.10
2019-03-19T01:58:14.475Z,87.77
2019-03-19T02:00:42.451Z,87.75
2019-03-19T02:03:10.564Z,88.06
2019-03-19T02:05:38.579Z,87.80
2019-03-19T02:08:06.561Z,87.72
2019-03-19T02:10:34.526Z,87.59
2019-03-19T02:13:02.514Z,87.36
2019-03-19T02:15:31.553Z,86.75
2019-03-19T02:17:59.580Z,87.14
2019-03-19T02:20:27.478Z,87.16
2019-03-19T02:22:55.504Z,87.06
2019-03-19T02:25:23.423Z,87.42
2019-03-19T02:27:51.412Z,87.46
2019-03-19T02:30:19.598Z,87.63
2019-03-19T02:32:47.607Z,87.44
2019-03-19T02:35:15.441Z,87.65
2019-03-19T02:37:43.628Z,87.74
2019-03-19T02:40:12.971Z,87.43
2019-03-19T02:42:40.941Z,87.79
2019-03-19T02:45:09.143Z,87.90
2019-03-19T02:47:37.326Z,87.37
2019-03-19T02:50:05.589Z,86.94
2019-03-19T02:52:33.614Z,86.87
2019-03-19T02:55:01.707Z,86.76
2019-03-19T02:57:29.273Z,87.14
2019-03-19T02:59:57.254Z,87.44
2019-03-19T03:02:25.274Z,87.48
2019-03-19T03:04:53.144Z,86.96
2019-03-19T03:07:21.217Z,87.00
2019-03-19T03:09:49.079Z,87.24
2019-03-19T03:12:17.054Z,87.64
2019-03-19T03:14:46.310Z,87.06
2019-03-19T03:17:14.543Z,87.13
2019-03-19T03:19:42.434Z,87.26
2019-03-19T03:22:10.444Z,87.62
2019-03-19T03:24:38.557Z,87.78
2019-03-19T03:27:06.394Z,87.73
2019-03-19T03:29:34.453Z,87.68
2019-03-19T03:32:02.349Z,87.93
2019-03-19T03:34:30.253Z,88.32
2019-03-19T03:36:58.443Z,88.71
2019-03-19T03:39:27.500Z,88.77
2019-03-19T03:41:55.706Z,88.27
2019-03-19T03:44:24.411Z,87.92
2019-03-19T03:46:52.422Z,87.93
2019-03-19T03:49:20.186Z,87.49
2019-03-19T03:51:48.108Z,87.72
2019-03-19T03:54:15.937Z,87.45
2019-03-19T03:56:44.016Z,87.68
2019-03-19T03:59:12.115Z,87.31
2019-03-19T04:01:39.979Z,87.15
2019-03-19T04:04:07.803Z,87.11
2019-03-19T04:06:35.869Z,87.47
2019-03-19T04:09:09.148Z,87.11
2019-03-19T04:11:35.360Z,86.56
2019-03-19T04:14:03.447Z,86.79
2019-03-19T04:16:31.575Z,86.79
2019-03-19T04:18:59.359Z,87.09
2019-03-19T04:21:27.558Z,87.57
2019-03-19T04:23:55.407Z,87.71
2019-03-19T04:26:23.516Z,88.44
2019-03-19T04:28:52.286Z,88.17
2019-03-19T04:31:20.552Z,87.32
2019-03-19T04:33:48.602Z,86.97
2019-03-19T04:36:16.751Z,86.80
2019-03-19T04:38:44.762Z,86.80
2019-03-19T04:41:12.874Z,87.11
2019-03-19T04:43:40.740Z,87.64
2019-03-19T04:46:08.564Z,87.38
2019-03-19T04:48:36.558Z,87.16
2019-03-19T04:51:04.476Z,87.29
2019-03-19T04:53:32.511Z,87.42
2019-03-19T04:56:00.325Z,86.82
2019-03-19T04:58:28.454Z,86.42
2019-03-19T05:00:56.353Z,86.11
2019-03-19T05:03:24.579Z,86.41
2019-03-19T05:05:53.005Z,86.79
2019-03-19T05:08:21.161Z,86.62
2019-03-19T05:10:49.235Z,87.04
2019-03-19T05:13:17.300Z,87.28
2019-03-19T05:15:45.405Z,87.27
2019-03-19T05:18:13.520Z,87.03
2019-03-19T05:20:41.545Z,86.01
2019-03-19T05:23:11.152Z,85.84
2019-03-19T05:25:39.413Z,86.35
2019-03-19T05:28:07.631Z,86.66
2019-03-19T05:30:35.563Z,87.62
2019-03-19T05:33:03.660Z,87.44
2019-03-19T05:35:31.626Z,86.74
2019-03-19T05:37:59.871Z,86.57
2019-03-19T05:40:27.958Z,85.65
2019-03-19T05:42:56.298Z,85.59
2019-03-19T05:45:24.258Z,84.64
2019-03-19T05:47:52.592Z,84.38
2019-03-19T05:50:22.328Z,84.03
2019-03-19T05:52:50.503Z,84.63
2019-03-19T05:55:18.260Z,83.92
2019-03-19T05:57:49.771Z,83.97
2019-03-19T06:00:16.807Z,83.92
2019-03-19T06:02:44.891Z,83.57
2019-03-19T06:05:12.937Z,82.95
2019-03-19T06:07:41.045Z,83.75
2019-03-19T06:10:08.859Z,83.79
2019-03-19T06:12:36.983Z,83.96
2019-03-19T06:15:05.330Z,83.39
2019-03-19T06:17:33.381Z,83.17
2019-03-19T06:20:01.382Z,83.17
2019-03-19T06:22:29.505Z,83.29
2019-03-19T06:24:57.344Z,82.96
2019-03-19T06:27:25.259Z,83.04
2019-03-19T06:29:53.159Z,83.44
2019-03-19T06:32:21.159Z,83.90
2019-03-19T06:34:49.191Z,82.94
2019-03-19T06:37:17.073Z,82.37
2019-03-19T06:39:45.140Z,82.52
2019-03-19T06:42:13.117Z,82.80
2019-03-19T06:44:41.112Z,82.51
2019-03-19T06:47:09.119Z,82.33
2019-03-19T06:49:37.221Z,81.66
2019-03-19T06:52:05.253Z,81.90
2019-03-19T06:54:33.355Z,82.29
2019-03-19T06:57:01.394Z,82.45
2019-03-19T06:59:29.531Z,82.69
2019-03-19T07:01:59.288Z,82.54
2019-03-19T07:04:27.226Z,82.21
2019-03-19T07:06:55.041Z,82.19
2019-03-19T07:09:23.224Z,82.09
2019-03-19T07:11:50.963Z,81.64
2019-03-19T07:14:19.001Z,80.95
2019-03-19T07:16:47.815Z,80.21
2019-03-19T07:19:15.692Z,79.76
2019-03-19T07:21:44.616Z,78.97
2019-03-19T07:24:13.696Z,78.83
2019-03-19T07:26:41.672Z,78.79
2019-03-19T07:29:09.763Z,76.89
2019-03-19T07:31:37.684Z,76.60
2019-03-19T07:34:05.825Z,77.16
2019-03-19T07:36:33.935Z,76.89
2019-03-19T07:39:01.857Z,77.61
2019-03-19T07:41:30.282Z,78.18
2019-03-19T07:43:59.494Z,77.78
2019-03-19T07:46:27.341Z,76.59
2019-03-19T07:48:55.684Z,76.61
2019-03-19T07:51:23.617Z,76.25
2019-03-19T07:53:51.709Z,76.21
2019-03-19T07:56:21.396Z,76.85
2019-03-19T07:58:49.363Z,76.65
2019-03-19T08:01:17.425Z,77.24
2019-03-19T08:03:45.685Z,76.34
2019-03-19T08:06:13.865Z,76.34
2019-03-19T08:08:41.711Z,76.72
2019-03-19T08:11:09.614Z,76.94
2019-03-19T08:13:37.625Z,78.48
2019-03-19T08:16:05.601Z,76.96
2019-03-19T08:18:36.002Z,75.56
2019-03-19T08:21:03.767Z,75.81
2019-03-19T08:23:31.707Z,76.89
2019-03-19T08:25:59.891Z,76.21
2019-03-19T08:28:27.699Z,73.89
2019-03-19T08:30:55.720Z,74.48
2019-03-19T08:33:23.809Z,72.45
2019-03-19T08:35:51.787Z,70.78
2019-03-19T08:38:19.744Z,69.12
2019-03-19T08:40:47.686Z,67.48
2019-03-19T08:43:16.675Z,66.68
2019-03-19T08:45:44.551Z,66.33
2019-03-19T08:48:12.583Z,65.07
2019-03-19T08:50:40.397Z,64.73
2019-03-19T08:53:08.696Z,65.22
2019-03-19T08:55:36.525Z,63.38
2019-03-19T08:58:04.530Z,62.12
2019-03-19T09:00:32.611Z,58.92
2019-03-19T09:03:00.674Z,58.56
2019-03-19T09:05:28.530Z,56.15
2019-03-19T09:07:56.598Z,56.17
2019-03-19T09:10:24.459Z,55.76
2019-03-19T09:12:52.636Z,53.81
2019-03-19T09:15:20.510Z,55.17
2019-03-19T09:17:48.528Z,55.97
2019-03-19T09:20:16.574Z,54.94
2019-03-19T09:22:44.645Z,54.25
2019-03-19T09:25:12.719Z,54.11
2019-03-19T09:27:41.616Z,55.56
2019-03-19T09:30:12.047Z,55.56
2019-03-19T09:32:40.033Z,56.51
2019-03-19T09:35:08.025Z,55.41
2019-03-19T09:37:36.049Z,54.79
2019-03-19T09:40:04.553Z,52.95
2019-03-19T09:42:32.919Z,52.70
2019-03-19T09:45:00.933Z,53.10
2019-03-19T09:47:29.001Z,51.71
2019-03-19T09:49:57.102Z,52.52
2019-03-19T09:52:25.207Z,52.12
2019-03-19T09:54:53.076Z,52.37
2019-03-19T09:57:21.044Z,52.83
2019-03-19T09:59:48.883Z,53.69
2019-03-19T10:02:16.973Z,56.16
2019-03-19T10:04:44.999Z,55.67
2019-03-19T10:07:12.955Z,55.31
2019-03-19T10:09:41.000Z,55.55
2019-03-19T10:12:09.999Z,56.02
2019-03-19T10:14:38.123Z,54.61
2019-03-19T10:17:06.242Z,54.47
2019-03-19T10:19:34.273Z,54.14
2019-03-19T10:22:02.750Z,52.89
2019-03-19T10:24:30.684Z,52.41
2019-03-19T10:26:58.757Z,51.29
2019-03-19T10:29:37.603Z,51.53
2019-03-19T10:31:56.646Z,52.36
2019-03-19T10:34:24.617Z,53.03
2019-03-19T10:36:52.820Z,51.86
2019-03-19T10:39:20.795Z,50.16
2019-03-19T10:41:48.966Z,50.54
2019-03-19T10:44:17.066Z,50.40
2019-03-19T10:46:44.843Z,51.38
2019-03-19T10:49:12.609Z,50.17
2019-03-19T10:51:40.571Z,48.18
2019-03-19T10:54:08.480Z,47.84
2019-03-19T10:56:38.795Z,47.05
2019-03-19T10:59:06.486Z,46.79
2019-03-19T11:01:34.514Z,48.06
2019-03-19T11:04:02.363Z,49.39
2019-03-19T11:06:30.431Z,49.12
2019-03-19T11:08:58.321Z,50.05
2019-03-19T11:11:26.399Z,52.01
2019-03-19T11:13:54.233Z,51.68
2019-03-19T11:16:22.140Z,51.93
2019-03-19T11:18:50.221Z,52.56
2019-03-19T11:21:18.232Z,52.50
2019-03-19T11:23:46.160Z,49.99
2019-03-19T11:26:15.777Z,49.99
2019-03-19T11:28:43.754Z,51.02
2019-03-19T11:31:12.030Z,50.86
2019-03-19T11:33:39.991Z,51.77
2019-03-19T11:36:08.028Z,52.09
2019-03-19T11:38:36.067Z,51.94
2019-03-19T11:41:04.122Z,53.46
2019-03-19T11:43:32.321Z,52.64
2019-03-19T11:46:00.440Z,52.48
2019-03-19T11:48:28.332Z,51.93
2019-03-19T11:50:56.309Z,53.11
2019-03-19T11:53:24.343Z,52.57
2019-03-19T11:55:52.246Z,53.64
2019-03-19T11:58:21.188Z,52.08
2019-03-19T12:00:52.500Z,50.98
2019-03-19T12:03:20.507Z,51.24
2019-03-19T12:05:48.454Z,53.05
2019-03-19T12:08:16.368Z,51.70
2019-03-19T12:10:47.268Z,48.84
2019-03-19T12:13:15.418Z,48.39
2019-03-19T12:15:43.396Z,49.35
2019-03-19T12:18:11.488Z,48.33
2019-03-19T12:20:39.503Z,48.78
2019-03-19T12:23:07.521Z,49.73
2019-03-19T12:25:35.421Z,50.21
2019-03-19T12:28:03.792Z,50.28
2019-03-19T12:30:31.770Z,49.07
2019-03-19T12:32:59.706Z,48.61
2019-03-19T12:35:27.779Z,51.61
2019-03-19T12:37:55.597Z,51.35
2019-03-19T12:40:23.517Z,51.95
2019-03-19T12:42:51.624Z,51.93
2019-03-19T12:45:19.522Z,52.82
2019-03-19T12:47:47.511Z,57.65
2019-03-19T12:50:15.831Z,58.40
2019-03-19T12:52:43.744Z,58.99
2019-03-19T12:55:11.741Z,59.67
2019-03-19T12:57:39.833Z,61.29
2019-03-19T13:00:14.103Z,62.52
2019-03-19T13:02:42.112Z,60.53
2019-03-19T13:05:10.227Z,59.29
2019-03-19T13:07:38.160Z,58.38
2019-03-19T13:10:08.169Z,57.40
2019-03-19T13:12:36.233Z,57.16
2019-03-19T13:15:05.047Z,55.67
2019-03-19T13:17:33.465Z,56.36
2019-03-19T13:20:02.325Z,56.40
2019-03-19T13:22:30.428Z,55.46
2019-03-19T13:24:58.489Z,56.09
2019-03-19T13:27:26.618Z,55.93
2019-03-19T13:29:54.683Z,56.93
2019-03-19T13:32:22.944Z,56.54
2019-03-19T13:34:51.737Z,56.48
2019-03-19T13:37:19.767Z,56.66
2019-03-19T13:39:47.744Z,56.74
2019-03-19T13:42:15.654Z,56.02
2019-03-19T13:44:46.738Z,56.44
2019-03-19T13:47:15.666Z,54.96
2019-03-19T13:49:44.078Z,55.13
2019-03-19T13:52:12.194Z,55.71
2019-03-19T13:54:39.982Z,55.93
2019-03-19T13:57:07.864Z,55.39
2019-03-19T13:59:36.160Z,55.88
2019-03-19T14:02:04.262Z,56.24
2019-03-19T14:04:32.283Z,55.91
2019-03-19T14:07:00.312Z,54.89
2019-03-19T14:09:28.352Z,53.37
2019-03-19T14:11:56.461Z,52.36
2019-03-19T14:14:24.384Z,51.50
2019-03-19T14:16:52.520Z,50.51
2019-03-19T14:19:20.527Z,50.89
2019-03-19T14:21:48.417Z,50.58
2019-03-19T14:24:16.486Z,48.37
2019-03-19T14:26:44.582Z,47.99
2019-03-19T14:29:12.444Z,48.96
2019-03-19T14:31:40.334Z,51.46
2019-03-19T14:34:08.437Z,52.59
2019-03-19T14:36:36.468Z,53.76
2019-03-19T14:39:07.201Z,55.14
2019-03-19T14:41:35.414Z,55.20
2019-03-19T14:44:03.618Z,56.26
2019-03-19T14:46:31.616Z,55.41
2019-03-19T14:48:59.545Z,54.41
2019-03-19T14:51:27.639Z,53.82
2019-03-19T14:53:55.610Z,52.53
2019-03-19T14:56:23.767Z,53.31
2019-03-19T14:58:51.752Z,53.84
2019-03-19T15:01:19.971Z,54.14
2019-03-19T15:03:48.280Z,54.80
2019-03-19T15:06:16.647Z,55.32
2019-03-19T15:08:44.534Z,56.12
2019-03-19T15:11:12.610Z,57.10
2019-03-19T15:13:40.682Z,57.59
2019-03-19T15:16:08.705Z,57.18
2019-03-19T15:18:36.626Z,57.54
2019-03-19T15:21:04.561Z,59.08
2019-03-19T15:23:32.503Z,61.26
2019-03-19T15:26:01.540Z,63.60
2019-03-19T15:28:29.739Z,64.81
2019-03-19T15:30:57.609Z,64.01
2019-03-19T15:33:25.611Z,68.52
2019-03-19T15:35:53.780Z,70.77
2019-03-19T15:38:21.656Z,72.49
2019-03-19T15:40:49.568Z,71.04
2019-03-19T15:43:17.342Z,72.31
2019-03-19T15:45:45.576Z,71.73
2019-03-19T15:48:13.495Z,71.34
2019-03-19T15:50:41.947Z,72.10
2019-03-19T15:53:10.122Z,73.02
2019-03-19T15:55:38.108Z,73.26
2019-03-19T15:58:06.114Z,73.25
2019-03-19T16:00:34.151Z,74.81
2019-03-19T16:03:02.055Z,76.56
2019-03-19T16:05:30.219Z,77.34
2019-03-19T16:07:58.122Z,76.03
2019-03-19T16:10:27.147Z,76.57
2019-03-19T16:12:55.271Z,76.57
2019-03-19T16:15:23.594Z,76.69
2019-03-19T16:17:51.622Z,77.73
2019-03-19T16:20:19.857Z,76.87
2019-03-19T16:22:47.881Z,77.55
2019-03-19T16:25:15.850Z,76.76
2019-03-19T16:27:43.871Z,77.50
2019-03-19T16:30:12.871Z,79.02
2019-03-19T16:32:40.783Z,79.50
2019-03-19T16:35:09.052Z,78.31
2019-03-19T16:37:37.220Z,78.63
2019-03-19T16:40:06.296Z,78.64
2019-03-19T16:42:34.267Z,79.16
2019-03-19T16:45:02.088Z,78.92
2019-03-19T16:47:30.209Z,78.83
2019-03-19T16:49:58.119Z,79.21
2019-03-19T16:52:26.147Z,79.81
2019-03-19T16:54:54.261Z,79.60
2019-03-19T16:57:22.482Z,79.07
2019-03-19T16:59:52.159Z,79.26
2019-03-19T17:02:20.025Z,79.57
2019-03-19T17:04:47.895Z,79.47
2019-03-19T17:07:16.013Z,79.00
2019-03-19T17:09:44.321Z,78.80
2019-03-19T17:12:12.429Z,79.03
2019-03-19T17:14:40.401Z,79.52
2019-03-19T17:17:08.437Z,79.97
2019-03-19T17:19:36.419Z,79.87
2019-03-19T17:22:04.472Z,79.56
2019-03-19T17:24:32.284Z,79.78
2019-03-19T17:27:00.581Z,79.51
2019-03-19T17:29:28.536Z,79.71
2019-03-19T17:31:56.693Z,79.63
2019-03-19T17:34:24.783Z,79.91
2019-03-19T17:36:55.417Z,80.01
2019-03-19T17:39:23.399Z,79.72
2019-03-19T17:41:51.447Z,80.19
2019-03-19T17:44:19.230Z,80.70
2019-03-19T17:46:47.253Z,81.52
2019-03-19T17:49:15.148Z,81.96
2019-03-19T17:51:43.398Z,82.41
2019-03-19T17:54:11.430Z,83.02
2019-03-19T17:56:49.765Z,83.22
2019-03-19T17:59:17.982Z,83.11
2019-03-19T18:01:45.912Z,83.24
2019-03-19T18:04:13.820Z,83.35
2019-03-19T18:06:43.160Z,83.47
2019-03-19T18:09:11.451Z,83.39
2019-03-19T18:11:39.470Z,83.58
2019-03-19T18:14:07.363Z,83.79
2019-03-19T18:16:35.272Z,84.32
2019-03-19T18:19:03.364Z,84.14
2019-03-19T18:21:31.558Z,84.18
2019-03-19T18:23:59.778Z,84.27
2019-03-19T18:26:27.589Z,84.52
2019-03-19T18:28:55.672Z,84.69
2019-03-19T18:31:23.664Z,84.63
2019-03-19T18:33:51.501Z,84.91
2019-03-19T18:36:19.526Z,85.13
2019-03-19T18:38:47.692Z,85.58
2019-03-19T18:41:15.820Z,85.48
2019-03-19T18:43:43.995Z,85.56
2019-03-19T18:46:12.080Z,85.05
2019-03-19T18:48:40.195Z,85.23
2019-03-19T18:51:08.197Z,84.94
2019-03-19T18:53:36.320Z,84.88
2019-03-19T18:56:05.576Z,85.24
2019-03-19T18:58:33.585Z,85.23
2019-03-19T19:01:01.571Z,85.40
2019-03-19T19:03:30.372Z,85.50
2019-03-19T19:05:59.458Z,85.25
2019-03-19T19:08:28.624Z,85.35
2019-03-19T19:10:56.820Z,85.43
2019-03-19T19:13:25.043Z,85.25
2019-03-19T19:15:53.151Z,85.48
2019-03-19T19:18:21.095Z,85.16
2019-03-19T19:20:50.023Z,85.43
2019-03-19T19:23:20.700Z,85.79
2019-03-19T19:25:49.905Z,85.62
2019-03-19T19:28:17.763Z,86.27
2019-03-19T19:30:45.771Z,86.43
2019-03-19T19:33:13.895Z,86.50
2019-03-19T19:35:41.945Z,86.56
2019-03-19T19:38:10.893Z,86.73
2019-03-19T19:40:38.781Z,87.00
2019-03-19T19:43:06.660Z,86.34
2019-03-19T19:45:34.922Z,85.96
2019-03-19T19:48:02.834Z,85.75
2019-03-19T19:50:31.249Z,85.83
2019-03-19T19:52:59.730Z,85.87
2019-03-19T19:55:27.684Z,86.09
2019-03-19T19:57:55.916Z,86.05
2019-03-19T20:00:24.144Z,86.12
2019-03-19T20:02:52.247Z,86.07
2019-03-19T20:05:20.329Z,85.81
2019-03-19T20:07:48.361Z,85.64
2019-03-19T20:10:16.945Z,86.37
2019-03-19T20:12:45.348Z,86.77
2019-03-19T20:15:14.045Z,86.89
2019-03-19T20:17:42.643Z,87.09
2019-03-19T20:20:13.398Z,87.13
2019-03-19T20:22:41.580Z,87.27
2019-03-19T20:25:09.831Z,87.45
2019-03-19T20:27:38.088Z,87.73
2019-03-19T20:30:07.924Z,87.36
2019-03-19T20:32:35.979Z,87.50
2019-03-19T20:35:05.468Z,87.60
2019-03-19T20:37:35.443Z,88.03
2019-03-19T20:40:11.284Z,87.98
2019-03-19T20:42:40.226Z,88.14
2019-03-19T20:45:09.732Z,88.07
2019-03-19T20:47:38.090Z,87.91
2019-03-19T20:50:09.872Z,87.96
2019-03-19T20:52:37.864Z,87.77
2019-03-19T20:55:05.964Z,87.25
2019-03-19T20:57:33.994Z,86.41
2019-03-19T21:00:01.947Z,86.02
2019-03-19T21:02:31.740Z,85.82
2019-03-19T21:04:59.749Z,86.55
2019-03-19T21:07:27.984Z,85.88
2019-03-19T21:09:56.030Z,85.97
2019-03-19T21:12:24.023Z,86.01
2019-03-19T21:14:53.306Z,85.98
2019-03-19T21:17:21.258Z,85.60
2019-03-19T21:19:49.217Z,86.18
2019-03-19T21:22:17.184Z,86.67
2019-03-19T21:24:45.394Z,86.53
2019-03-19T21:27:13.510Z,86.50
2019-03-19T21:29:41.601Z,86.29
2019-03-19T21:32:09.596Z,86.88
2019-03-19T21:34:37.724Z,86.91
2019-03-19T21:37:05.833Z,86.68
2019-03-19T21:39:33.808Z,86.85
2019-03-19T21:42:01.816Z,86.99
2019-03-19T21:44:29.811Z,87.24
2019-03-19T21:46:57.681Z,88.02
2019-03-19T21:49:25.676Z,88.77
2019-03-19T21:51:53.513Z,89.23
2019-03-19T21:54:21.386Z,89.30
2019-03-19T21:56:49.432Z,89.51
2019-03-19T21:59:17.637Z,89.46
2019-03-19T22:01:46.444Z,89.62
2019-03-19T22:04:14.370Z,89.48
2019-03-19T22:06:42.477Z,88.82
2019-03-19T22:09:10.509Z,88.42
2019-03-19T22:11:38.739Z,88.29
2019-03-19T22:14:06.599Z,88.02
2019-03-19T22:16:34.722Z,88.17
2019-03-19T22:19:02.806Z,88.81
2019-03-19T22:21:30.867Z,89.21
2019-03-19T22:23:58.912Z,89.39
2019-03-19T22:26:26.976Z,89.45
2019-03-19T22:28:55.113Z,89.21
2019-03-19T22:31:23.127Z,88.38
2019-03-19T22:33:51.163Z,88.42
2019-03-19T22:36:20.471Z,88.59
2019-03-19T22:38:48.329Z,88.49
2019-03-19T22:41:16.404Z,88.50
2019-03-19T22:43:44.326Z,88.45
2019-03-19T22:46:21.387Z,88.27
2019-03-19T22:48:42.841Z,88.56
2019-03-19T22:51:10.892Z,88.56
2019-03-19T22:53:39.218Z,88.73
2019-03-19T22:56:07.190Z,88.99
2019-03-19T22:58:35.527Z,89.18
2019-03-19T23:01:03.678Z,88.90
2019-03-19T23:03:33.444Z,88.61
2019-03-19T23:06:01.566Z,88.13
2019-03-19T23:08:29.577Z,88.16
2019-03-19T23:10:57.668Z,88.14
2019-03-19T23:13:25.675Z,88.37
2019-03-19T23:15:53.801Z,88.49
2019-03-19T23:18:21.718Z,88.63
2019-03-19T23:20:49.891Z,87.92
2019-03-19T23:23:18.023Z,87.43
2019-03-19T23:25:46.121Z,87.35
2019-03-19T23:28:14.352Z,87.66
2019-03-19T23:30:42.744Z,87.41
2019-03-19T23:33:11.894Z,87.18
2019-03-19T23:35:39.935Z,87.05
2019-03-19T23:38:07.779Z,87.53
2019-03-19T23:40:35.845Z,87.43
2019-03-19T23:43:03.936Z,87.31
2019-03-19T23:45:32.063Z,87.29
2019-03-19T23:47:59.847Z,87.67
2019-03-19T23:50:27.868Z,87.81
2019-03-19T23:52:55.994Z,87.50
2019-03-19T23:55:23.772Z,87.29
2019-03-19T23:57:51.777Z,87.21
